| time (UTC) | temp F | wind direction | speed MPH | gust MPH | rain 1hr in | rain 24hr in | rain mn in | humidity % | barometer mb |
| 20260504222557 | 78 | 308 | 0.0 | 0.0 | 0.00 | 0.00 | 0.00 | 81 | 1005.0 |
| 20260504222047 | 78 | 305 | 0.0 | 1.0 | 0.00 | 0.00 | 0.00 | 80 | 1005.0 |
| 20260504221547 | 77 | 309 | 0.0 | 0.0 | 0.00 | 0.00 | 0.00 | 80 | 1005.0 |
| 20260504221047 | 77 | 309 | 0.0 | 0.0 | 0.00 | 0.00 | 0.00 | 80 | 1005.0 |
| 20260504220547 | 77 | 308 | 0.0 | 0.0 | 0.00 | 0.00 | 0.00 | 80 | 1005.0 |
| 20260504220048 | 77 | 310 | 0.0 | 0.0 | 0.00 | 0.00 | 0.00 | 81 | 1005.0 |
| 20260504215546 | 77 | 310 | 0.0 | 0.0 | 0.00 | 0.00 | 0.00 | 81 | 1005.0 |
| 20260504215046 | 77 | 309 | 0.0 | 0.0 | 0.00 | 0.00 | 0.00 | 81 | 1005.0 |
| 20260504214546 | 77 | 309 | 0.0 | 0.0 | 0.00 | 0.00 | 0.00 | 81 | 1005.0 |
| 20260504214046 | 77 | 309 | 0.0 | 0.0 | 0.00 | 0.00 | 0.00 | 81 | 1005.0 |
| 20260504213547 | 77 | 309 | 0.0 | 0.0 | 0.00 | 0.00 | 0.00 | 80 | 1005.0 |
| 20260504213048 | 77 | 309 | 0.0 | 1.0 | 0.00 | 0.00 | 0.00 | 80 | 1005.0 |
| 20260504212548 | 77 | 310 | 0.0 | 0.0 | 0.00 | 0.00 | 0.00 | 80 | 1006.0 |
| 20260504212047 | 77 | 310 | 0.0 | 0.0 | 0.00 | 0.00 | 0.00 | 80 | 1006.0 |
| 20260504211548 | 78 | 310 | 0.0 | 0.0 | 0.00 | 0.00 | 0.00 | 80 | 1006.0 |
| 20260504211048 | 78 | 310 | 0.0 | 0.0 | 0.00 | 0.00 | 0.00 | 79 | 1006.0 |
| 20260504210547 | 78 | 310 | 0.0 | 0.0 | 0.00 | 0.00 | 0.00 | 79 | 1006.0 |
| 20260504210049 | 78 | 310 | 0.0 | 0.0 | 0.00 | 0.00 | 0.00 | 79 | 1006.0 |
| 20260504205547 | 78 | 310 | 0.0 | 0.0 | 0.00 | 0.00 | 0.00 | 79 | 1006.0 |
| 20260504205047 | 78 | 311 | 0.0 | 0.0 | 0.00 | 0.00 | 0.00 | 79 | 1006.0 |
| 20260504204546 | 78 | 311 | 0.0 | 0.0 | 0.00 | 0.00 | 0.00 | 79 | 1006.0 |
| 20260504204047 | 78 | 311 | 0.0 | 0.0 | 0.00 | 0.00 | 0.00 | 79 | 1006.0 |
| 20260504203547 | 78 | 311 | 0.0 | 0.0 | 0.00 | 0.00 | 0.00 | 79 | 1007.0 |
| 20260504203047 | 78 | 310 | 0.0 | 0.0 | 0.00 | 0.00 | 0.00 | 79 | 1007.0 |
| 20260504202547 | 78 | 310 | 0.0 | 0.0 | 0.00 | 0.00 | 0.00 | 79 | 1007.0 |
| 20260504202048 | 78 | 308 | 0.0 | 0.0 | 0.00 | 0.00 | 0.00 | 78 | 1007.0 |
| 20260504201546 | 78 | 309 | 0.0 | 0.0 | 0.00 | 0.00 | 0.00 | 78 | 1006.0 |
| 20260504201048 | 78 | 309 | 0.0 | 0.0 | 0.00 | 0.00 | 0.00 | 78 | 1006.0 |
| 20260504200546 | 78 | 309 | 0.0 | 0.0 | 0.00 | 0.00 | 0.00 | 77 | 1006.0 |
| 20260504200048 | 78 | 307 | 0.0 | 1.0 | 0.00 | 0.00 | 0.00 | 77 | 1007.0 |
| 20260504195556 | 78 | 304 | 4.0 | 6.0 | 0.00 | 0.00 | 0.00 | 76 | 1007.0 |
| 20260504195047 | 79 | 310 | 1.0 | 1.0 | 0.00 | 0.00 | 0.00 | 77 | 1007.0 |
| 20260504194547 | 79 | 312 | 1.0 | 1.0 | 0.00 | 0.00 | 0.00 | 77 | 1007.0 |
| 20260504194046 | 79 | 319 | 0.0 | 1.0 | 0.00 | 0.00 | 0.00 | 76 | 1007.0 |
| 20260504193546 | 79 | 307 | 0.0 | 1.0 | 0.00 | 0.00 | 0.00 | 76 | 1007.0 |
| 20260504193046 | 79 | 313 | 1.0 | 1.0 | 0.00 | 0.00 | 0.00 | 76 | 1007.0 |
| 20260504192546 | 79 | 311 | 0.0 | 1.0 | 0.00 | 0.00 | 0.00 | 76 | 1007.0 |
| 20260504192046 | 79 | 309 | 1.0 | 1.0 | 0.00 | 0.00 | 0.00 | 76 | 1007.0 |
| 20260504191546 | 80 | 311 | 1.0 | 1.0 | 0.00 | 0.00 | 0.00 | 76 | 1007.0 |
| 20260504191048 | 80 | 308 | 1.0 | 1.0 | 0.00 | 0.00 | 0.00 | 75 | 1008.0 |
| 20260504190546 | 80 | 310 | 2.0 | 2.0 | 0.00 | 0.00 | 0.00 | 76 | 1008.0 |
| 20260504190048 | 80 | 315 | 1.0 | 1.0 | 0.00 | 0.00 | 0.00 | 75 | 1008.0 |
| 20260504185546 | 80 | 308 | 1.0 | 1.0 | 0.00 | 0.00 | 0.00 | 75 | 1008.0 |
| 20260504185046 | 80 | 306 | 1.0 | 2.0 | 0.00 | 0.00 | 0.00 | 75 | 1008.0 |
| 20260504184546 | 80 | 308 | 1.0 | 1.0 | 0.00 | 0.00 | 0.00 | 76 | 1008.0 |
| 20260504184047 | 80 | 303 | 3.0 | 5.0 | 0.00 | 0.00 | 0.00 | 77 | 1008.0 |
| 20260504183547 | 80 | 307 | 1.0 | 1.0 | 0.00 | 0.00 | 0.00 | 77 | 1008.0 |
| 20260504183047 | 80 | 314 | 2.0 | 5.0 | 0.00 | 0.00 | 0.00 | 76 | 1008.0 |
| 20260504182550 | 80 | 307 | 1.0 | 1.0 | 0.00 | 0.00 | 0.00 | 76 | 1007.0 |
| 20260504182047 | 79 | 308 | 1.0 | 2.0 | 0.00 | 0.00 | 0.00 | 76 | 1007.0 |
| 20260504181546 | 79 | 311 | 1.0 | 2.0 | 0.00 | 0.00 | 0.00 | 76 | 1007.0 |
| 20260504181048 | 79 | 312 | 1.0 | 1.0 | 0.00 | 0.00 | 0.00 | 76 | 1007.0 |
| 20260504180546 | 79 | 314 | 0.0 | 1.0 | 0.00 | 0.00 | 0.00 | 76 | 1007.0 |
| 20260504180048 | 79 | 311 | 2.0 | 3.0 | 0.00 | 0.00 | 0.00 | 76 | 1007.0 |
| 20260504175546 | 80 | 311 | 1.0 | 2.0 | 0.00 | 0.00 | 0.00 | 75 | 1007.0 |
| 20260504175046 | 80 | 310 | 1.0 | 2.0 | 0.00 | 0.00 | 0.00 | 74 | 1007.0 |
| 20260504174548 | 81 | 308 | 3.0 | 5.0 | 0.00 | 0.00 | 0.00 | 72 | 1007.0 |
| 20260504174046 | 82 | 318 | 3.0 | 5.0 | 0.00 | 0.00 | 0.00 | 71 | 1007.0 |
| 20260504173547 | 83 | 243 | 3.0 | 3.0 | 0.00 | 0.00 | 0.00 | 71 | 1007.0 |
| 20260504173046 | 84 | 314 | 3.0 | 3.0 | 0.00 | 0.00 | 0.00 | 72 | 1007.0 |
| 20260504172546 | 84 | 312 | 0.0 | 0.0 | 0.00 | 0.00 | 0.00 | 71 | 1008.0 |
| 20260504172047 | 85 | 323 | 2.0 | 5.0 | 0.00 | 0.00 | 0.00 | 69 | 1008.0 |
| 20260504171546 | 86 | 311 | 2.0 | 3.0 | 0.00 | 0.00 | 0.00 | 71 | 1007.0 |
| 20260504171048 | 86 | 312 | 1.0 | 1.0 | 0.00 | 0.00 | 0.00 | 75 | 1008.0 |
| 20260504170547 | 87 | 308 | 1.0 | 1.0 | 0.00 | 0.00 | 0.00 | 77 | 1007.0 |
| 20260504151047 | 87 | 259 | 3.0 | 5.0 | 0.00 | 0.00 | 0.00 | 78 | 1006.0 |
| 20260504150546 | 88 | 291 | 1.0 | 2.0 | 0.00 | 0.00 | 0.00 | 78 | 1006.0 |
| 20260504141047 | 89 | 307 | 1.0 | 2.0 | 0.00 | 0.00 | 0.00 | 77 | 1005.0 |
| 20260504140548 | 89 | 273 | 1.0 | 2.0 | 0.00 | 0.00 | 0.00 | 76 | 1005.0 |
| 20260504130548 | 91 | 264 | 3.0 | 3.0 | 0.00 | 0.00 | 0.00 | 71 | 1003.0 |
| 20260504110548 | 98 | 310 | 0.0 | 0.0 | 0.00 | 0.00 | 0.00 | 55 | 1003.0 |
| 20260504100547 | 99 | 251 | 0.0 | 0.0 | 0.00 | 0.00 | 0.00 | 54 | 1003.0 |
| 20260504081547 | 100 | 312 | 2.0 | 2.0 | 0.00 | 0.00 | 0.00 | 55 | 1004.0 |
| 20260504081049 | 100 | 268 | 3.0 | 5.0 | 0.00 | 0.00 | 0.00 | 53 | 1005.0 |
| 20260504080546 | 101 | 300 | 0.0 | 0.0 | 0.00 | 0.00 | 0.00 | 52 | 1005.0 |
| 20260504050546 | 95 | 318 | 0.0 | 1.0 | 0.00 | 0.00 | 0.00 | 55 | 1007.0 |
| 20260504045547 | 93 | 315 | 0.0 | 0.0 | 0.00 | 0.00 | 0.00 | 57 | 1008.0 |
| 20260504045046 | 93 | 312 | 0.0 | 0.0 | 0.00 | 0.00 | 0.00 | 57 | 1008.0 |
| 20260504044547 | 93 | 309 | 0.0 | 0.0 | 0.00 | 0.00 | 0.00 | 56 | 1007.0 |
| 20260504044046 | 92 | 310 | 1.0 | 1.0 | 0.00 | 0.00 | 0.00 | 57 | 1008.0 |
| 20260504043547 | 92 | 302 | 1.0 | 1.0 | 0.00 | 0.00 | 0.00 | 58 | 1007.0 |
| 20260504043047 | 92 | 313 | 1.0 | 2.0 | 0.00 | 0.00 | 0.00 | 58 | 1008.0 |
| 20260504042548 | 91 | 302 | 3.0 | 5.0 | 0.00 | 0.00 | 0.00 | 58 | 1008.0 |
| 20260504042048 | 91 | 310 | 0.0 | 0.0 | 0.00 | 0.00 | 0.00 | 58 | 1008.0 |
| 20260504041547 | 91 | 310 | 0.0 | 0.0 | 0.00 | 0.00 | 0.00 | 58 | 1008.0 |
| 20260504041046 | 91 | 313 | 1.0 | 1.0 | 0.00 | 0.00 | 0.00 | 59 | 1008.0 |
| 20260504040547 | 90 | 306 | 1.0 | 2.0 | 0.00 | 0.00 | 0.00 | 57 | 1008.0 |
| 20260504040047 | 90 | 313 | 1.0 | 2.0 | 0.00 | 0.00 | 0.00 | 61 | 1007.0 |
| 20260504035546 | 90 | 313 | 1.0 | 1.0 | 0.00 | 0.00 | 0.00 | 60 | 1007.0 |
| 20260504035047 | 90 | 311 | 3.0 | 5.0 | 0.00 | 0.00 | 0.00 | 60 | 1007.0 |
| 20260504034547 | 90 | 308 | 2.0 | 3.0 | 0.00 | 0.00 | 0.00 | 60 | 1007.0 |
| 20260504034047 | 90 | 311 | 0.0 | 0.0 | 0.00 | 0.00 | 0.00 | 63 | 1008.0 |
| 20260504033547 | 89 | 313 | 1.0 | 2.0 | 0.00 | 0.00 | 0.00 | 62 | 1007.0 |
| 20260504033046 | 89 | 311 | 2.0 | 3.0 | 0.00 | 0.00 | 0.00 | 63 | 1007.0 |
| 20260504032547 | 88 | 309 | 0.0 | 1.0 | 0.00 | 0.00 | 0.00 | 64 | 1008.0 |
| 20260504032046 | 88 | 313 | 1.0 | 2.0 | 0.00 | 0.00 | 0.00 | 65 | 1007.0 |
| 20260504031547 | 87 | 308 | 2.0 | 3.0 | 0.00 | 0.00 | 0.00 | 65 | 1007.0 |
| 20260504031048 | 87 | 307 | 0.0 | 0.0 | 0.00 | 0.00 | 0.00 | 67 | 1007.0 |
| 20260504030546 | 87 | 311 | 0.0 | 1.0 | 0.00 | 0.00 | 0.00 | 66 | 1007.0 |
| 20260504030046 | 87 | 308 | 0.0 | 0.0 | 0.00 | 0.00 | 0.00 | 66 | 1007.0 |
| 20260504025546 | 88 | 310 | 1.0 | 1.0 | 0.00 | 0.00 | 0.00 | 65 | 1007.0 |
| 20260504025046 | 87 | 311 | 0.0 | 0.0 | 0.00 | 0.00 | 0.00 | 67 | 1007.0 |
| 20260504024547 | 86 | 308 | 2.0 | 3.0 | 0.00 | 0.00 | 0.00 | 66 | 1007.0 |
| 20260504024048 | 87 | 309 | 1.0 | 1.0 | 0.00 | 0.00 | 0.00 | 67 | 1007.0 |
| 20260504023547 | 86 | 313 | 0.0 | 0.0 | 0.00 | 0.00 | 0.00 | 69 | 1007.0 |
| 20260504023046 | 86 | 311 | 0.0 | 0.0 | 0.00 | 0.00 | 0.00 | 70 | 1007.0 |
| 20260504022546 | 85 | 315 | 0.0 | 1.0 | 0.00 | 0.00 | 0.00 | 71 | 1007.0 |
| 20260504022046 | 85 | 311 | 1.0 | 1.0 | 0.00 | 0.00 | 0.00 | 71 | 1007.0 |
| 20260504021546 | 85 | 309 | 0.0 | 1.0 | 0.00 | 0.00 | 0.00 | 71 | 1007.0 |
| 20260504021047 | 85 | 309 | 0.0 | 0.0 | 0.00 | 0.00 | 0.00 | 72 | 1007.0 |
| 20260504020546 | 84 | 309 | 0.0 | 0.0 | 0.00 | 0.00 | 0.00 | 73 | 1007.0 |
| 20260504020046 | 82 | 310 | 0.0 | 0.0 | 0.00 | 0.00 | 0.00 | 75 | 1007.0 |
| 20260504015546 | 82 | 309 | 0.0 | 0.0 | 0.00 | 0.00 | 0.00 | 76 | 1006.0 |
| 20260504015046 | 82 | 309 | 0.0 | 0.0 | 0.00 | 0.00 | 0.00 | 76 | 1006.0 |
| 20260504014546 | 81 | 310 | 0.0 | 0.0 | 0.00 | 0.00 | 0.00 | 78 | 1006.0 |
| 20260504014048 | 81 | 310 | 0.0 | 0.0 | 0.00 | 0.00 | 0.00 | 79 | 1006.0 |
| 20260504013546 | 80 | 310 | 0.0 | 0.0 | 0.00 | 0.00 | 0.00 | 79 | 1006.0 |
| 20260504013047 | 80 | 310 | 0.0 | 0.0 | 0.00 | 0.00 | 0.00 | 79 | 1006.0 |
| 20260504012547 | 79 | 310 | 0.0 | 0.0 | 0.00 | 0.00 | 0.00 | 79 | 1006.0 |
| 20260504012046 | 79 | 310 | 0.0 | 0.0 | 0.00 | 0.00 | 0.00 | 79 | 1006.0 |
| 20260504011546 | 79 | 311 | 0.0 | 0.0 | 0.00 | 0.00 | 0.00 | 80 | 1006.0 |
| 20260504011046 | 79 | 311 | 0.0 | 0.0 | 0.00 | 0.00 | 0.00 | 81 | 1006.0 |
| 20260504010547 | 79 | 311 | 0.0 | 0.0 | 0.00 | 0.00 | 0.00 | 80 | 1006.0 |
| 20260504010047 | 79 | 310 | 0.0 | 0.0 | 0.00 | 0.00 | 0.00 | 81 | 1005.0 |
| 20260504005547 | 79 | 310 | 0.0 | 0.0 | 0.00 | 0.00 | 0.00 | 80 | 1005.0 |
| 20260504005047 | 79 | 310 | 0.0 | 0.0 | 0.00 | 0.00 | 0.00 | 80 | 1005.0 |
| 20260504004546 | 79 | 310 | 0.0 | 0.0 | 0.00 | 0.00 | 0.00 | 80 | 1005.0 |
| 20260504004046 | 79 | 310 | 0.0 | 0.0 | 0.00 | 0.00 | 0.00 | 79 | 1005.0 |
| 20260504003547 | 79 | 310 | 0.0 | 0.0 | 0.00 | 0.00 | 0.00 | 79 | 1005.0 |
| 20260504003046 | 79 | 310 | 0.0 | 0.0 | 0.00 | 0.00 | 0.00 | 78 | 1005.0 |
| 20260504002546 | 79 | 310 | 0.0 | 0.0 | 0.00 | 0.00 | 0.00 | 77 | 1005.0 |
| 20260504002047 | 79 | 310 | 0.0 | 0.0 | 0.00 | 0.00 | 0.00 | 77 | 1005.0 |
| 20260504001546 | 80 | 310 | 0.0 | 0.0 | 0.00 | 0.00 | 0.00 | 76 | 1005.0 |
| 20260504001046 | 80 | 310 | 0.0 | 0.0 | 0.00 | 0.00 | 0.00 | 76 | 1005.0 |
| 20260504000546 | 80 | 310 | 0.0 | 0.0 | 0.00 | 0.00 | 0.00 | 75 | 1005.0 |
| 20260504000047 | 80 | 310 | 0.0 | 0.0 | 0.00 | 0.00 | 0.00 | 75 | 1005.0 |
| 20260503235547 | 80 | 309 | 0.0 | 0.0 | 0.00 | 0.00 | 0.00 | 76 | 1005.0 |
| 20260503235046 | 79 | 310 | 0.0 | 0.0 | 0.00 | 0.00 | 0.00 | 76 | 1005.0 |
| 20260503234546 | 79 | 310 | 0.0 | 0.0 | 0.00 | 0.00 | 0.00 | 76 | 1005.0 |
| 20260503234046 | 79 | 310 | 0.0 | 0.0 | 0.00 | 0.00 | 0.00 | 77 | 1005.0 |
| 20260503233546 | 80 | 311 | 0.0 | 0.0 | 0.00 | 0.00 | 0.00 | 77 | 1005.0 |
| 20260503233048 | 80 | 311 | 0.0 | 0.0 | 0.00 | 0.00 | 0.00 | 76 | 1005.0 |
| 20260503232547 | 80 | 311 | 0.0 | 0.0 | 0.00 | 0.00 | 0.00 | 76 | 1005.0 |
| 20260503232046 | 80 | 311 | 0.0 | 0.0 | 0.00 | 0.00 | 0.00 | 75 | 1004.0 |
| 20260503231547 | 80 | 311 | 0.0 | 0.0 | 0.00 | 0.00 | 0.00 | 75 | 1005.0 |
| 20260503231046 | 80 | 311 | 0.0 | 0.0 | 0.00 | 0.00 | 0.00 | 75 | 1005.0 |
| 20260503230546 | 80 | 310 | 0.0 | 0.0 | 0.00 | 0.00 | 0.00 | 74 | 1005.0 |
| 20260503230046 | 80 | 310 | 0.0 | 0.0 | 0.00 | 0.00 | 0.00 | 73 | 1004.0 |
| 20260503225547 | 81 | 310 | 0.0 | 0.0 | 0.00 | 0.00 | 0.00 | 73 | 1004.0 |
| 20260503225048 | 81 | 310 | 0.0 | 0.0 | 0.00 | 0.00 | 0.00 | 73 | 1004.0 |
| 20260503224546 | 81 | 310 | 0.0 | 0.0 | 0.00 | 0.00 | 0.00 | 72 | 1004.0 |
| 20260503224046 | 81 | 310 | 0.0 | 0.0 | 0.00 | 0.00 | 0.00 | 72 | 1004.0 |
| 20260503223546 | 81 | 309 | 0.0 | 0.0 | 0.00 | 0.00 | 0.00 | 72 | 1004.0 |
| 20260503223048 | 81 | 309 | 0.0 | 0.0 | 0.00 | 0.00 | 0.00 | 73 | 1004.0 |